Cosco Venice — VRME4 — position and weather

sailwx.info

Track history (hours):
 
Tides and Currents Weather Stations Pressure Air Temp Water Temp Dewpoint Dewpoint Depression Visibility Wind Speed Wind Dir Waves Ship Positions

Cosco Venice

Last reported at 2018-Feb-17 20:00 UTC. Time now 2018-Feb-22 16:48 UTC.
Position N 23°24' W 118°06'.

Length 261 m; draft 12 m.

Type: Ship (hazmat cat D). MMSI: 477004700.

Wind from 140 at 13 knots

Barometer 1021.0 mb
Air temperature 24.0 ° C
Visibility: greater than 5.4 NM
Water temperature 28.0 ° C

Date/timePositionNaut miles runAvg speedWind from/ knotsBaromVisibWave heightAir tempDewpointWater temp
2018-Feb-17 20:00N 23°24' W 118°06'46818.7 140 / 131021.0 5.4 24.0 28.0
2018-Feb-16 19:00N 20°42' W 110°12'   320 / 211019.0 5.4 25.0 28.0
2018-Feb-11 20:30N 09°11' W 079°52'5 9.8
2018-Feb-11 20:00N 09°14' W 079°55'2 4.3
2018-Feb-11 19:30N 09°16' W 079°55'0 0.4
2018-Feb-11 18:59N 09°16' W 079°55'0 0.4
2018-Feb-11 18:29N 09°17' W 079°55'0 0.5
2018-Feb-11 18:01N 09°17' W 079°55'0 1.0
2018-Feb-11 17:30N 09°17' W 079°55'2 3.6
2018-Feb-11 17:00N 09°19' W 079°55'3 5.3
2018-Feb-11 16:30N 09°22' W 079°55'4 7.1
2018-Feb-11 16:00N 09°25' W 079°55'5 9.4
2018-Feb-11 15:30N 09°30' W 079°56'1 2.1
2018-Feb-11 14:59N 09°30' W 079°57'0 0.1
2018-Feb-11 14:20N 09°30' W 079°57'0 0.1
2018-Feb-11 13:41N 09°30' W 079°57'0 0.2
2018-Feb-11 13:29N 09°30' W 079°57'0 0.0
2018-Feb-11 12:38N 09°30' W 079°57'0 0.0
2018-Feb-11 12:26N 09°30' W 079°57'0 0.0
2018-Feb-11 11:59N 09°30' W 079°57'0 0.0
2018-Feb-11 11:29N 09°30' W 079°57'0 0.0
2018-Feb-11 10:50N 09°30' W 079°57'0 0.2
2018-Feb-11 10:29N 09°30' W 079°57'0 0.0
2018-Feb-11 09:56N 09°30' W 079°57'0 0.0
2018-Feb-11 09:20N 09°30' W 079°57'0 0.1
2018-Feb-11 08:53N 09°30' W 079°57'0 0.1
2018-Feb-11 08:29N 09°30' W 079°57'0 0.1
2018-Feb-11 07:59N 09°30' W 079°57'0 0.0
2018-Feb-11 07:29N 09°30' W 079°57'0 0.0
2018-Feb-11 04:59N 09°30' W 079°57'0 0.0
2018-Feb-11 04:29N 09°30' W 079°57'0 0.1
2018-Feb-11 03:18N 09°30' W 079°57'0 1.5
2018-Feb-11 03:00N 09°30' W 079°57'3 6.1
2018-Feb-11 02:30N 09°32' W 079°54'  
Track history (hours):
 
Tides and Currents Weather Stations Pressure Air Temp Water Temp Dewpoint Dewpoint Depression Visibility Wind Speed Wind Dir Waves Ship Positions

Cosco Venice

Last reported at 2018-Feb-17 20:00 UTC. Time now 2018-Feb-22 16:48 UTC.
Position N 23°24' W 118°06'.

Length 261 m; draft 12 m.

Type: Ship (hazmat cat D). MMSI: 477004700.

Wind from 140 at 13 knots

Barometer 1021.0 mb
Air temperature 24.0 ° C
Visibility: greater than 5.4 NM
Water temperature 28.0 ° C

Date/timePositionNaut miles runAvg speedWind from/ knotsBaromVisibWave heightAir tempDewpointWater temp
2018-Feb-17 20:00N 23°24' W 118°06'46818.7 140 / 131021.0 5.4 24.0 28.0
2018-Feb-16 19:00N 20°42' W 110°12'   320 / 211019.0 5.4 25.0 28.0
2018-Feb-11 20:30N 09°11' W 079°52'5 9.8
2018-Feb-11 20:00N 09°14' W 079°55'2 4.3
2018-Feb-11 19:30N 09°16' W 079°55'0 0.4
2018-Feb-11 18:59N 09°16' W 079°55'0 0.4
2018-Feb-11 18:29N 09°17' W 079°55'0 0.5
2018-Feb-11 18:01N 09°17' W 079°55'0 1.0
2018-Feb-11 17:30N 09°17' W 079°55'2 3.6
2018-Feb-11 17:00N 09°19' W 079°55'3 5.3
2018-Feb-11 16:30N 09°22' W 079°55'4 7.1
2018-Feb-11 16:00N 09°25' W 079°55'5 9.4
2018-Feb-11 15:30N 09°30' W 079°56'1 2.1
2018-Feb-11 14:59N 09°30' W 079°57'0 0.1
2018-Feb-11 14:20N 09°30' W 079°57'0 0.1
2018-Feb-11 13:41N 09°30' W 079°57'0 0.2
2018-Feb-11 13:29N 09°30' W 079°57'0 0.0
2018-Feb-11 12:38N 09°30' W 079°57'0 0.0
2018-Feb-11 12:26N 09°30' W 079°57'0 0.0
2018-Feb-11 11:59N 09°30' W 079°57'0 0.0
2018-Feb-11 11:29N 09°30' W 079°57'0 0.0
2018-Feb-11 10:50N 09°30' W 079°57'0 0.2
2018-Feb-11 10:29N 09°30' W 079°57'0 0.0
2018-Feb-11 09:56N 09°30' W 079°57'0 0.0
2018-Feb-11 09:20N 09°30' W 079°57'0 0.1
2018-Feb-11 08:53N 09°30' W 079°57'0 0.1
2018-Feb-11 08:29N 09°30' W 079°57'0 0.1
2018-Feb-11 07:59N 09°30' W 079°57'0 0.0
2018-Feb-11 07:29N 09°30' W 079°57'0 0.0
2018-Feb-11 04:59N 09°30' W 079°57'0 0.0
2018-Feb-11 04:29N 09°30' W 079°57'0 0.1
2018-Feb-11 03:18N 09°30' W 079°57'0 1.5
2018-Feb-11 03:00N 09°30' W 079°57'3 6.1
2018-Feb-11 02:30N 09°32' W 079°54'  

Dump ship's entire track history